createdAt,value
2017-08-03T00:00:30.827Z,0
2017-08-03T00:01:30.852Z,0
2017-08-03T00:02:31.211Z,0
2017-08-03T00:03:30.908Z,0
2017-08-03T00:04:31.258Z,0
2017-08-03T00:05:31.003Z,0
2017-08-03T00:06:30.996Z,0
2017-08-03T00:07:31.445Z,0
2017-08-03T00:08:31.361Z,0
2017-08-03T00:09:30.787Z,0
2017-08-03T00:10:31.113Z,0
2017-08-03T00:11:31.139Z,0
2017-08-03T00:12:30.852Z,0
2017-08-03T00:13:31.598Z,0
2017-08-03T00:14:30.904Z,0
2017-08-03T00:15:31.319Z,0
2017-08-03T00:16:31.455Z,0
2017-08-03T00:17:31.456Z,0
2017-08-03T00:18:31.643Z,0
2017-08-03T00:19:31.767Z,0
2017-08-03T00:20:31.082Z,0
2017-08-03T00:21:31.516Z,0
2017-08-03T00:22:31.761Z,0
2017-08-03T00:23:31.658Z,0
2017-08-03T00:24:31.595Z,0
2017-08-03T00:25:31.702Z,0
2017-08-03T00:26:31.873Z,0
2017-08-03T00:27:31.900Z,0
2017-08-03T00:28:31.926Z,0
2017-08-03T00:29:44.088Z,0
2017-08-03T00:30:32.017Z,0
2017-08-03T00:31:31.719Z,0
2017-08-03T00:32:32.061Z,0
2017-08-03T00:33:31.761Z,0
2017-08-03T00:34:31.794Z,0
2017-08-03T00:35:32.137Z,0
2017-08-03T00:36:32.155Z,0
2017-08-03T00:37:31.872Z,0
2017-08-03T00:38:32.214Z,0
2017-08-03T00:39:32.272Z,0
2017-08-03T00:40:32.271Z,0
2017-08-03T00:41:31.981Z,0
2017-08-03T00:42:32.315Z,0
2017-08-03T00:43:32.371Z,0
2017-08-03T00:44:32.386Z,0
2017-08-03T00:45:32.411Z,0
2017-08-03T00:46:32.434Z,0
2017-08-03T00:47:32.477Z,0
2017-08-03T00:48:32.496Z,0
2017-08-03T00:49:32.606Z,0
2017-08-03T00:50:32.554Z,0
2017-08-03T00:51:32.574Z,0
2017-08-03T00:52:32.482Z,0
2017-08-03T00:53:32.655Z,0
2017-08-03T00:54:32.658Z,0
2017-08-03T00:55:32.678Z,0
2017-08-03T00:56:32.414Z,0
2017-08-03T00:57:32.744Z,0
2017-08-03T00:58:32.933Z,0
2017-08-03T00:59:32.615Z,0
2017-08-03T01:00:32.927Z,0
2017-08-03T01:01:32.852Z,0
2017-08-03T01:02:32.883Z,0
2017-08-03T01:03:32.906Z,0
2017-08-03T01:04:33.010Z,0
2017-08-03T01:05:33.013Z,0
2017-08-03T01:06:32.034Z,0
2017-08-03T01:07:32.068Z,0
2017-08-03T01:08:32.406Z,0
2017-08-03T01:09:32.962Z,0
2017-08-03T01:10:32.794Z,0
2017-08-03T01:11:32.819Z,0
2017-08-03T01:12:32.526Z,0
2017-08-03T01:13:32.900Z,0
2017-08-03T01:14:32.582Z,0
2017-08-03T01:15:32.913Z,0
2017-08-03T01:16:32.938Z,0
2017-08-03T01:17:32.976Z,0
2017-08-03T01:18:33.312Z,0
2017-08-03T01:19:33.350Z,0
2017-08-03T01:20:33.370Z,0
2017-08-03T01:21:33.079Z,0
2017-08-03T01:22:33.106Z,0
2017-08-03T01:23:33.456Z,0
2017-08-03T01:24:32.852Z,0
2017-08-03T01:25:32.977Z,0
2017-08-03T01:26:33.534Z,0
2017-08-03T01:27:33.263Z,0
2017-08-03T01:28:33.742Z,0
2017-08-03T01:29:33.643Z,0
2017-08-03T01:30:33.331Z,0
2017-08-03T01:31:33.674Z,0
2017-08-03T01:32:33.065Z,0
2017-08-03T01:33:33.724Z,0
2017-08-03T01:34:33.116Z,0
2017-08-03T01:35:33.783Z,0
2017-08-03T01:36:33.837Z,0
2017-08-03T01:37:33.527Z,0
2017-08-03T01:38:33.244Z,0
2017-08-03T01:39:33.568Z,0
2017-08-03T01:40:33.594Z,0
2017-08-03T01:41:33.950Z,0
2017-08-03T01:42:33.653Z,0
2017-08-03T01:43:34.003Z,0
2017-08-03T01:44:34.034Z,0
2017-08-03T01:45:34.049Z,0
2017-08-03T01:46:33.768Z,0
2017-08-03T01:47:34.099Z,0
2017-08-03T01:48:33.816Z,0
2017-08-03T01:49:34.171Z,0
2017-08-03T01:50:34.187Z,0
2017-08-03T01:51:33.575Z,0
2017-08-03T01:52:34.341Z,0
2017-08-03T01:53:33.960Z,0
2017-08-03T01:54:34.306Z,0
2017-08-03T01:55:34.318Z,0
2017-08-03T01:56:34.080Z,0
2017-08-03T01:57:34.592Z,0
2017-08-03T01:58:34.415Z,0
2017-08-03T01:59:34.450Z,0
2017-08-03T02:00:34.460Z,0
2017-08-03T02:01:34.174Z,0
2017-08-03T02:02:34.512Z,0
2017-08-03T02:03:34.541Z,0
2017-08-03T02:04:34.661Z,0
2017-08-03T02:05:34.678Z,0
2017-08-03T02:06:34.381Z,0
2017-08-03T02:07:34.658Z,0
2017-08-03T02:08:34.872Z,0
2017-08-03T02:09:34.703Z,0
2017-08-03T02:10:34.448Z,0
2017-08-03T02:11:34.775Z,0
2017-08-03T02:12:34.782Z,0
2017-08-03T02:13:34.818Z,0
2017-08-03T02:14:34.635Z,0
2017-08-03T02:15:34.957Z,0
2017-08-03T02:16:34.294Z,0
2017-08-03T02:17:34.784Z,0
2017-08-03T02:18:34.837Z,0
2017-08-03T02:19:34.670Z,0
2017-08-03T02:20:35.015Z,0
2017-08-03T02:21:35.028Z,0
2017-08-03T02:22:34.971Z,0
2017-08-03T02:23:35.303Z,0
2017-08-03T02:24:34.855Z,0
2017-08-03T02:25:35.195Z,0
2017-08-03T02:26:34.843Z,0
2017-08-03T02:27:35.440Z,0
2017-08-03T02:28:35.214Z,0
2017-08-03T02:29:35.254Z,0
2017-08-03T02:30:34.727Z,0
2017-08-03T02:31:35.044Z,0
2017-08-03T02:32:35.003Z,0
2017-08-03T02:33:35.341Z,0
2017-08-03T02:34:35.376Z,0
2017-08-03T02:35:35.441Z,0
2017-08-03T02:36:35.427Z,0
2017-08-03T02:37:35.570Z,0
2017-08-03T02:38:34.948Z,0
2017-08-03T02:39:35.398Z,0
2017-08-03T02:40:35.218Z,0
2017-08-03T02:41:35.266Z,0
2017-08-03T02:42:35.595Z,0
2017-08-03T02:43:35.700Z,0
2017-08-03T02:44:35.712Z,0
2017-08-03T02:45:35.740Z,0
2017-08-03T02:46:35.707Z,0
2017-08-03T02:47:35.727Z,0
2017-08-03T02:48:35.746Z,0
2017-08-03T02:49:35.309Z,0
2017-08-03T02:50:35.190Z,0
2017-08-03T02:51:35.441Z,0
2017-08-03T02:52:35.560Z,0
2017-08-03T02:53:35.888Z,0
2017-08-03T02:54:35.913Z,0
2017-08-03T02:55:35.645Z,0
2017-08-03T02:56:35.642Z,0
2017-08-03T02:57:36.015Z,0
2017-08-03T02:58:35.756Z,0
2017-08-03T02:59:35.752Z,0
2017-08-03T03:00:36.077Z,0
2017-08-03T03:01:35.457Z,0
2017-08-03T03:02:35.896Z,0
2017-08-03T03:03:35.510Z,0
2017-08-03T03:04:36.180Z,0
2017-08-03T03:05:36.198Z,0
2017-08-03T03:06:36.334Z,0
2017-08-03T03:07:35.989Z,0
2017-08-03T03:08:36.290Z,0
2017-08-03T03:09:36.023Z,0
2017-08-03T03:10:36.429Z,0
2017-08-03T03:11:36.375Z,0
2017-08-03T03:12:35.780Z,0
2017-08-03T03:13:36.418Z,0
2017-08-03T03:14:36.121Z,0
2017-08-03T03:15:36.640Z,0
2017-08-03T03:16:36.185Z,0
2017-08-03T03:17:36.641Z,0
2017-08-03T03:18:36.002Z,0
2017-08-03T03:19:36.254Z,0
2017-08-03T03:20:36.604Z,0
2017-08-03T03:21:36.313Z,0
2017-08-03T03:22:36.674Z,0
2017-08-03T03:23:36.365Z,0
2017-08-03T03:24:36.389Z,0
2017-08-03T03:25:35.780Z,0
2017-08-03T03:26:36.754Z,0
2017-08-03T03:27:36.853Z,0
2017-08-03T03:28:36.818Z,0
2017-08-03T03:29:36.642Z,0
2017-08-03T03:30:36.564Z,0
2017-08-03T03:31:36.893Z,0
2017-08-03T03:32:36.603Z,0
2017-08-03T03:33:36.934Z,0
2017-08-03T03:34:36.663Z,0
2017-08-03T03:35:36.682Z,0
2017-08-03T03:36:37.016Z,0
2017-08-03T03:37:37.054Z,0
2017-08-03T03:38:37.070Z,0
2017-08-03T03:39:37.093Z,0
2017-08-03T03:40:36.809Z,0
2017-08-03T03:41:37.159Z,0
2017-08-03T03:42:37.179Z,0
2017-08-03T03:43:36.906Z,0
2017-08-03T03:44:36.918Z,0
2017-08-03T03:45:36.624Z,0
2017-08-03T03:46:37.350Z,0
2017-08-03T03:47:36.372Z,0
2017-08-03T03:48:37.362Z,0
2017-08-03T03:49:37.361Z,0
2017-08-03T03:50:37.387Z,0
2017-08-03T03:51:37.418Z,0
2017-08-03T03:52:37.441Z,0
2017-08-03T03:53:37.157Z,0
2017-08-03T03:54:37.182Z,0
2017-08-03T03:55:37.517Z,0
2017-08-03T03:56:37.227Z,0
2017-08-03T03:57:37.260Z,0
2017-08-03T03:58:37.598Z,0
2017-08-03T03:59:37.631Z,0
2017-08-03T04:00:37.657Z,0
2017-08-03T04:01:37.363Z,0
2017-08-03T04:02:37.746Z,0
2017-08-03T04:03:37.415Z,0
2017-08-03T04:04:37.460Z,0
2017-08-03T04:05:37.775Z,0
2017-08-03T04:06:37.493Z,0
2017-08-03T04:07:37.519Z,0
2017-08-03T04:08:37.871Z,0
2017-08-03T04:09:37.884Z,0
2017-08-03T04:10:37.593Z,0
2017-08-03T04:11:37.940Z,0
2017-08-03T04:12:37.973Z,0
2017-08-03T04:13:37.994Z,0
2017-08-03T04:14:38.024Z,0
2017-08-03T04:15:37.871Z,0
2017-08-03T04:16:38.067Z,0
2017-08-03T04:17:37.781Z,0
2017-08-03T04:18:38.118Z,0
2017-08-03T04:19:37.825Z,0
2017-08-03T04:20:38.181Z,0
2017-08-03T04:21:37.882Z,0
2017-08-03T04:22:38.227Z,0
2017-08-03T04:23:38.255Z,0
2017-08-03T04:24:37.971Z,0
2017-08-03T04:25:37.993Z,0
2017-08-03T04:26:38.106Z,0
2017-08-03T04:27:38.040Z,0
2017-08-03T04:28:38.067Z,0
2017-08-03T04:29:38.097Z,0
2017-08-03T04:30:38.447Z,0
2017-08-03T04:31:38.138Z,0
2017-08-03T04:32:38.170Z,0
2017-08-03T04:33:38.500Z,0
2017-08-03T04:34:38.215Z,0
2017-08-03T04:35:38.574Z,5
2017-08-03T04:36:38.585Z,5
2017-08-03T04:37:38.698Z,5
2017-08-03T04:38:38.639Z,5
2017-08-03T04:39:38.689Z,5
2017-08-03T04:40:38.696Z,5
2017-08-03T04:41:38.424Z,5
2017-08-03T04:42:38.427Z,5
2017-08-03T04:43:38.795Z,5
2017-08-03T04:44:38.479Z,5
2017-08-03T04:45:38.822Z,5
2017-08-03T04:46:38.991Z,5
2017-08-03T04:47:38.258Z,5
2017-08-03T04:48:38.592Z,5
2017-08-03T04:49:38.952Z,5
2017-08-03T04:50:38.957Z,5
2017-08-03T04:51:38.338Z,5
2017-08-03T04:52:39.004Z,5
2017-08-03T04:53:39.037Z,5
2017-08-03T04:54:38.417Z,5
2017-08-03T04:55:38.772Z,5
2017-08-03T04:56:39.258Z,5
2017-08-03T04:57:39.267Z,5
2017-08-03T04:58:39.361Z,5
2017-08-03T04:59:38.865Z,5
2017-08-03T05:00:39.206Z,5
2017-08-03T05:01:39.038Z,5
2017-08-03T05:02:39.220Z,5
2017-08-03T05:03:39.277Z,5
2017-08-03T05:04:39.087Z,5
2017-08-03T05:05:39.354Z,5
2017-08-03T05:06:39.176Z,5
2017-08-03T05:07:39.389Z,5
2017-08-03T05:08:39.729Z,5
2017-08-03T05:09:39.573Z,5
2017-08-03T05:10:39.476Z,5
2017-08-03T05:11:39.177Z,10
2017-08-03T05:12:39.524Z,10
2017-08-03T05:13:38.604Z,10
2017-08-03T05:14:38.626Z,10
2017-08-03T05:15:39.598Z,10
2017-08-03T05:16:39.627Z,10
2017-08-03T05:17:39.802Z,10
2017-08-03T05:18:39.672Z,10
2017-08-03T05:19:39.382Z,10
2017-08-03T05:20:39.732Z,10
2017-08-03T05:21:39.561Z,10
2017-08-03T05:22:39.784Z,5
2017-08-03T05:23:39.497Z,5
2017-08-03T05:24:39.913Z,5
2017-08-03T05:25:39.955Z,5
2017-08-03T05:26:39.706Z,10
2017-08-03T05:27:39.612Z,10
2017-08-03T05:28:40.016Z,10
2017-08-03T05:29:39.649Z,10
2017-08-03T05:30:39.671Z,10
2017-08-03T05:31:39.513Z,10
2017-08-03T05:32:40.049Z,10
2017-08-03T05:33:40.076Z,15
2017-08-03T05:34:40.089Z,15
2017-08-03T05:35:40.115Z,20
2017-08-03T05:36:39.193Z,15
2017-08-03T05:37:40.178Z,10
2017-08-03T05:38:40.194Z,10
2017-08-03T05:39:40.017Z,10
2017-08-03T05:40:40.255Z,5
2017-08-03T05:41:39.959Z,5
2017-08-03T05:42:40.332Z,5
2017-08-03T05:43:40.326Z,5
2017-08-03T05:44:40.360Z,5
2017-08-03T05:45:39.430Z,5
2017-08-03T05:46:40.537Z,5
2017-08-03T05:47:39.803Z,5
2017-08-03T05:48:40.238Z,5
2017-08-03T05:49:39.869Z,10
2017-08-03T05:50:40.504Z,10
2017-08-03T05:51:40.268Z,10
2017-08-03T05:52:40.253Z,10
2017-08-03T05:53:40.594Z,10
2017-08-03T05:54:40.297Z,10
2017-08-03T05:55:40.641Z,10
2017-08-03T05:56:40.427Z,15
2017-08-03T05:57:40.686Z,15
2017-08-03T05:58:40.721Z,10
2017-08-03T05:59:40.743Z,15
2017-08-03T06:00:40.775Z,10
2017-08-03T06:01:40.800Z,15
2017-08-03T06:02:40.606Z,15
2017-08-03T06:03:40.546Z,15
2017-08-03T06:04:40.880Z,15
2017-08-03T06:05:40.267Z,15
2017-08-03T06:06:40.931Z,15
2017-08-03T06:07:40.642Z,15
2017-08-03T06:08:40.984Z,10
2017-08-03T06:09:40.377Z,15
2017-08-03T06:10:40.747Z,15
2017-08-03T06:11:40.749Z,15
2017-08-03T06:12:40.778Z,20
2017-08-03T06:13:41.114Z,20
2017-08-03T06:14:40.846Z,20
2017-08-03T06:15:41.163Z,25
2017-08-03T06:16:41.485Z,25
2017-08-03T06:17:41.316Z,20
2017-08-03T06:18:40.617Z,20
2017-08-03T06:19:41.035Z,20
2017-08-03T06:20:41.499Z,20
2017-08-03T06:21:41.632Z,15
2017-08-03T06:22:41.351Z,20
2017-08-03T06:23:40.745Z,20
2017-08-03T06:24:41.629Z,15
2017-08-03T06:25:41.638Z,15
2017-08-03T06:26:40.818Z,15
2017-08-03T06:27:40.526Z,20
2017-08-03T06:28:41.324Z,25
2017-08-03T06:29:41.664Z,35
2017-08-03T06:30:41.564Z,35
2017-08-03T06:31:41.294Z,35
2017-08-03T06:32:41.618Z,30
2017-08-03T06:33:41.345Z,25
2017-08-03T06:34:41.596Z,25
2017-08-03T06:35:41.396Z,20
2017-08-03T06:36:41.103Z,20
2017-08-03T06:37:41.544Z,15
2017-08-03T06:38:40.832Z,15
2017-08-03T06:39:41.922Z,10
2017-08-03T06:40:41.502Z,10
2017-08-03T06:41:41.214Z,15
2017-08-03T06:42:41.698Z,20
2017-08-03T06:43:41.580Z,30
2017-08-03T06:44:41.733Z,35
2017-08-03T06:45:41.784Z,35
2017-08-03T06:46:41.669Z,30
2017-08-03T06:47:41.918Z,30
2017-08-03T06:48:42.194Z,30
2017-08-03T06:49:42.216Z,30
2017-08-03T06:50:41.462Z,30
2017-08-03T06:51:41.808Z,25
2017-08-03T06:52:41.840Z,20
2017-08-03T06:53:42.180Z,20
2017-08-03T06:54:41.583Z,20
2017-08-03T06:55:41.915Z,20
2017-08-03T06:56:42.014Z,20
2017-08-03T06:57:41.971Z,20
2017-08-03T06:58:41.998Z,20
2017-08-03T06:59:42.345Z,20
2017-08-03T07:00:42.498Z,15
2017-08-03T07:01:42.070Z,15
2017-08-03T07:02:42.405Z,10
2017-08-03T07:03:42.535Z,10
2017-08-03T07:04:42.303Z,10
2017-08-03T07:05:42.494Z,15
2017-08-03T07:06:42.015Z,20
2017-08-03T07:07:42.540Z,25
2017-08-03T07:08:42.585Z,20
2017-08-03T07:09:42.607Z,20
2017-08-03T07:10:42.631Z,25
2017-08-03T07:11:42.348Z,30
2017-08-03T07:12:42.382Z,30
2017-08-03T07:13:42.393Z,35
2017-08-03T07:14:42.542Z,25
2017-08-03T07:15:42.763Z,15
2017-08-03T07:16:42.797Z,15
2017-08-03T07:17:42.827Z,15
2017-08-03T07:18:42.638Z,15
2017-08-03T07:19:42.611Z,20
2017-08-03T07:20:42.758Z,10
2017-08-03T07:21:42.931Z,10
2017-08-03T07:22:42.642Z,10
2017-08-03T07:23:42.668Z,10
2017-08-03T07:24:42.941Z,10
2017-08-03T07:25:42.743Z,5
2017-08-03T07:26:43.270Z,5
2017-08-03T07:27:42.451Z,0
2017-08-03T07:28:42.794Z,5
2017-08-03T07:29:43.160Z,15
2017-08-03T07:30:42.862Z,20
2017-08-03T07:31:42.891Z,25
2017-08-03T07:32:43.216Z,30
2017-08-03T07:33:42.941Z,30
2017-08-03T07:34:43.292Z,25
2017-08-03T07:35:43.308Z,20
2017-08-03T07:36:43.021Z,15
2017-08-03T07:37:43.392Z,10
2017-08-03T07:38:43.072Z,15
2017-08-03T07:39:43.197Z,20
2017-08-03T07:40:43.253Z,20
2017-08-03T07:41:43.233Z,15
2017-08-03T07:42:44.116Z,10
2017-08-03T07:43:43.195Z,10
2017-08-03T07:44:43.276Z,5
2017-08-03T07:45:43.623Z,5
2017-08-03T07:46:42.959Z,5
2017-08-03T07:47:43.511Z,5
2017-08-03T07:48:43.332Z,10
2017-08-03T07:49:43.372Z,10
2017-08-03T07:50:43.906Z,10
2017-08-03T07:51:43.523Z,15
2017-08-03T07:52:43.456Z,20
2017-08-03T07:53:43.481Z,20
2017-08-03T07:54:43.523Z,15
2017-08-03T07:55:43.850Z,20
2017-08-03T07:56:43.984Z,20
2017-08-03T07:57:43.594Z,20
2017-08-03T07:58:43.912Z,15
2017-08-03T07:59:43.639Z,15
2017-08-03T08:00:44.107Z,10
2017-08-03T08:01:44.006Z,10
2017-08-03T08:02:43.521Z,10
2017-08-03T08:03:43.429Z,15
2017-08-03T08:04:44.168Z,15
2017-08-03T08:05:44.124Z,15
2017-08-03T08:06:43.829Z,15
2017-08-03T08:07:43.862Z,15
2017-08-03T08:08:43.883Z,15
2017-08-03T08:09:43.915Z,15
2017-08-03T08:10:43.944Z,10
2017-08-03T08:11:43.972Z,10
2017-08-03T08:12:43.996Z,10
2017-08-03T08:13:44.462Z,10
2017-08-03T08:14:44.056Z,10
2017-08-03T08:15:44.087Z,10
2017-08-03T08:16:44.414Z,15
2017-08-03T08:17:44.118Z,15
2017-08-03T08:18:44.153Z,15
2017-08-03T08:19:44.193Z,20
2017-08-03T08:20:43.887Z,20
2017-08-03T08:21:44.242Z,20
2017-08-03T08:22:44.605Z,25
2017-08-03T08:23:43.980Z,25
2017-08-03T08:24:44.700Z,25
2017-08-03T08:25:44.777Z,20
2017-08-03T08:26:43.743Z,15
2017-08-03T08:27:43.866Z,15
2017-08-03T08:28:44.113Z,15
2017-08-03T08:29:44.768Z,15
2017-08-03T08:30:44.492Z,15
2017-08-03T08:31:44.851Z,15
2017-08-03T08:32:44.857Z,20
2017-08-03T08:33:44.260Z,20
2017-08-03T08:34:44.600Z,20
2017-08-03T08:35:44.951Z,20
2017-08-03T08:36:44.987Z,20
2017-08-03T08:37:44.043Z,20
2017-08-03T08:38:45.016Z,20
2017-08-03T08:39:45.064Z,20
2017-08-03T08:40:44.789Z,15
2017-08-03T08:41:44.877Z,15
2017-08-03T08:42:45.217Z,15
2017-08-03T08:43:44.905Z,15
2017-08-03T08:44:45.236Z,15
2017-08-03T08:45:44.893Z,15
2017-08-03T08:46:45.332Z,15
2017-08-03T08:47:44.961Z,10
2017-08-03T08:48:45.293Z,10
2017-08-03T08:49:44.711Z,10
2017-08-03T08:50:45.427Z,15
2017-08-03T08:51:45.453Z,15
2017-08-03T08:52:45.127Z,15
2017-08-03T08:53:45.234Z,15
2017-08-03T08:54:45.581Z,15
2017-08-03T08:55:45.578Z,10
2017-08-03T08:56:45.202Z,10
2017-08-03T08:57:45.657Z,10
2017-08-03T08:58:45.594Z,10
2017-08-03T08:59:45.266Z,10
2017-08-03T09:00:45.609Z,10
2017-08-03T09:01:45.639Z,10
2017-08-03T09:02:45.674Z,10
2017-08-03T09:03:45.386Z,15
2017-08-03T09:04:45.731Z,15
2017-08-03T09:05:45.748Z,15
2017-08-03T09:06:45.464Z,15
2017-08-03T09:07:45.812Z,15
2017-08-03T09:08:45.193Z,20
2017-08-03T09:09:45.554Z,25
2017-08-03T09:10:45.623Z,30
2017-08-03T09:11:45.597Z,35
2017-08-03T09:12:45.321Z,35
2017-08-03T09:13:45.342Z,30
2017-08-03T09:14:45.804Z,30
2017-08-03T09:15:45.692Z,20
2017-08-03T09:16:46.052Z,15
2017-08-03T09:17:45.139Z,15
2017-08-03T09:18:45.879Z,25
2017-08-03T09:19:45.817Z,35
2017-08-03T09:20:46.169Z,40
2017-08-03T09:21:46.185Z,40
2017-08-03T09:22:45.580Z,40
2017-08-03T09:23:46.248Z,40
2017-08-03T09:24:45.948Z,35
2017-08-03T09:25:46.302Z,35
2017-08-03T09:26:46.009Z,35
2017-08-03T09:27:46.034Z,35
2017-08-03T09:28:46.059Z,30
2017-08-03T09:29:46.081Z,30
2017-08-03T09:30:46.432Z,25
2017-08-03T09:31:46.356Z,25
2017-08-03T09:32:46.735Z,25
2017-08-03T09:33:46.195Z,30
2017-08-03T09:34:46.217Z,35
2017-08-03T09:35:46.253Z,40
2017-08-03T09:36:46.277Z,45
2017-08-03T09:37:46.301Z,45
2017-08-03T09:38:46.339Z,45
2017-08-03T09:39:46.681Z,45
2017-08-03T09:40:46.385Z,50
2017-08-03T09:41:46.407Z,50
2017-08-03T09:42:46.133Z,55
2017-08-03T09:43:46.464Z,60
2017-08-03T09:44:46.813Z,60
2017-08-03T09:45:46.520Z,60
2017-08-03T09:46:46.867Z,55
2017-08-03T09:47:46.583Z,50
2017-08-03T09:48:46.601Z,45
2017-08-03T09:49:46.631Z,45
2017-08-03T09:50:46.658Z,50
2017-08-03T09:51:47.240Z,50
2017-08-03T09:52:46.114Z,45
2017-08-03T09:53:46.937Z,50
2017-08-03T09:54:47.096Z,55
2017-08-03T09:55:47.249Z,55
2017-08-03T09:56:46.925Z,60
2017-08-03T09:57:46.952Z,60
2017-08-03T09:58:47.195Z,60
2017-08-03T09:59:47.029Z,60
2017-08-03T10:00:47.291Z,55
2017-08-03T10:01:47.287Z,55
2017-08-03T10:02:47.313Z,60
2017-08-03T10:03:47.337Z,60
2017-08-03T10:04:47.384Z,60
2017-08-03T10:05:47.178Z,60
2017-08-03T10:06:46.881Z,60
2017-08-03T10:07:47.319Z,55
2017-08-03T10:08:47.473Z,55
2017-08-03T10:09:46.872Z,50
2017-08-03T10:10:47.019Z,50
2017-08-03T10:11:47.325Z,55
2017-08-03T10:12:47.583Z,55
2017-08-03T10:13:46.985Z,55
2017-08-03T10:14:47.332Z,55
2017-08-03T10:15:47.351Z,50
2017-08-03T10:16:47.699Z,55
2017-08-03T10:17:47.401Z,55
2017-08-03T10:18:47.749Z,55
2017-08-03T10:19:47.861Z,50
2017-08-03T10:20:47.814Z,50
2017-08-03T10:21:47.523Z,55
2017-08-03T10:22:47.863Z,50
2017-08-03T10:23:47.896Z,45
2017-08-03T10:24:47.912Z,45
2017-08-03T10:25:47.948Z,40
2017-08-03T10:26:47.982Z,40
2017-08-03T10:27:48.007Z,35
2017-08-03T10:28:48.042Z,30
2017-08-03T10:29:48.052Z,25
2017-08-03T10:30:48.222Z,25
2017-08-03T10:31:48.117Z,25
2017-08-03T10:32:48.135Z,25
2017-08-03T10:33:47.853Z,25
2017-08-03T10:34:48.195Z,25
2017-08-03T10:35:47.903Z,30
2017-08-03T10:36:47.936Z,30
2017-08-03T10:37:47.972Z,30
2017-08-03T10:38:47.998Z,30
2017-08-03T10:39:48.473Z,30
2017-08-03T10:40:48.055Z,30
2017-08-03T10:41:47.452Z,30
2017-08-03T10:42:48.457Z,30
2017-08-03T10:43:48.451Z,30
2017-08-03T10:44:48.482Z,30
2017-08-03T10:45:48.523Z,30
2017-08-03T10:46:48.532Z,30
2017-08-03T10:47:47.930Z,30
2017-08-03T10:48:48.464Z,35
2017-08-03T10:49:47.987Z,35
2017-08-03T10:50:48.327Z,40
2017-08-03T10:51:48.360Z,35
2017-08-03T10:52:48.713Z,40
2017-08-03T10:53:48.525Z,40
2017-08-03T10:54:48.759Z,40
2017-08-03T10:55:48.798Z,35
2017-08-03T10:56:48.820Z,30
2017-08-03T10:57:48.234Z,25
2017-08-03T10:58:48.565Z,25
2017-08-03T10:59:48.275Z,25
2017-08-03T11:00:48.932Z,25
2017-08-03T11:01:48.960Z,25
2017-08-03T11:02:49.020Z,25
2017-08-03T11:03:49.016Z,35
2017-08-03T11:04:49.047Z,40
2017-08-03T11:05:48.434Z,45
2017-08-03T11:06:49.124Z,50
2017-08-03T11:07:49.132Z,40
2017-08-03T11:08:48.842Z,40
2017-08-03T11:09:49.197Z,45
2017-08-03T11:10:48.908Z,45
2017-08-03T11:11:49.242Z,45
2017-08-03T11:12:49.273Z,50
2017-08-03T11:13:49.309Z,55
2017-08-03T11:14:49.016Z,55
2017-08-03T11:15:49.048Z,55
2017-08-03T11:16:49.075Z,50
2017-08-03T11:17:49.214Z,50
2017-08-03T11:18:49.436Z,45
2017-08-03T11:19:49.465Z,40
2017-08-03T11:20:49.186Z,40
2017-08-03T11:21:49.224Z,45
2017-08-03T11:22:49.242Z,45
2017-08-03T11:23:49.263Z,50
2017-08-03T11:24:49.725Z,55
2017-08-03T11:25:49.323Z,55
2017-08-03T11:26:49.356Z,55
2017-08-03T11:27:49.089Z,50
2017-08-03T11:28:49.741Z,45
2017-08-03T11:29:49.440Z,45
2017-08-03T11:30:49.775Z,45
2017-08-03T11:31:49.485Z,50
2017-08-03T11:32:49.841Z,45
2017-08-03T11:33:49.237Z,45
2017-08-03T11:34:49.256Z,45
2017-08-03T11:35:49.297Z,45
2017-08-03T11:36:49.318Z,50
2017-08-03T11:37:49.673Z,60
2017-08-03T11:38:49.376Z,65
2017-08-03T11:39:49.403Z,75
2017-08-03T11:40:50.079Z,85
2017-08-03T11:41:50.168Z,85
2017-08-03T11:42:50.127Z,85
2017-08-03T11:43:49.842Z,75
2017-08-03T11:44:49.871Z,65
2017-08-03T11:45:50.245Z,55
2017-08-03T11:46:50.251Z,55
2017-08-03T11:47:49.953Z,65
2017-08-03T11:48:50.208Z,70
2017-08-03T11:49:49.701Z,80
2017-08-03T11:50:50.249Z,70
2017-08-03T11:51:50.088Z,55
2017-08-03T11:52:50.410Z,45
2017-08-03T11:53:50.129Z,45
2017-08-03T11:54:49.527Z,45
2017-08-03T11:55:50.189Z,50
2017-08-03T11:56:49.899Z,55
2017-08-03T11:57:50.582Z,75
2017-08-03T11:58:50.591Z,85
2017-08-03T11:59:50.635Z,85
2017-08-03T12:00:50.802Z,85
2017-08-03T12:01:50.678Z,75
2017-08-03T12:02:50.396Z,60
2017-08-03T12:03:50.425Z,60
2017-08-03T12:04:50.450Z,60
2017-08-03T12:05:50.479Z,60
2017-08-03T12:06:50.194Z,65
2017-08-03T12:07:50.547Z,65
2017-08-03T12:08:50.569Z,65
2017-08-03T12:09:50.918Z,65
2017-08-03T12:10:50.633Z,70
2017-08-03T12:11:50.973Z,85
2017-08-03T12:12:51.102Z,80
2017-08-03T12:13:51.112Z,55
2017-08-03T12:14:51.070Z,50
2017-08-03T12:15:50.772Z,65
2017-08-03T12:16:50.807Z,70
2017-08-03T12:17:50.833Z,65
2017-08-03T12:18:50.872Z,65
2017-08-03T12:19:50.895Z,65
2017-08-03T12:20:51.045Z,65
2017-08-03T12:21:50.961Z,65
2017-08-03T12:22:50.988Z,65
2017-08-03T12:23:50.782Z,65
2017-08-03T12:24:51.370Z,70
2017-08-03T12:25:50.801Z,70
2017-08-03T12:26:51.428Z,75
2017-08-03T12:27:51.553Z,70
2017-08-03T12:28:51.482Z,60
2017-08-03T12:29:51.516Z,60
2017-08-03T12:30:51.241Z,60
2017-08-03T12:31:50.937Z,60
2017-08-03T12:32:51.714Z,60
2017-08-03T12:33:51.319Z,60
2017-08-03T12:34:51.738Z,70
2017-08-03T12:35:51.372Z,65
2017-08-03T12:36:51.121Z,75
2017-08-03T12:37:51.750Z,65
2017-08-03T12:38:51.467Z,60
2017-08-03T12:39:51.520Z,85
2017-08-03T12:40:51.205Z,85
2017-08-03T12:41:51.558Z,80
2017-08-03T12:42:51.393Z,70
2017-08-03T12:43:51.938Z,75
2017-08-03T12:44:51.748Z,65
2017-08-03T12:45:51.842Z,75
2017-08-03T12:46:51.712Z,60
2017-08-03T12:47:51.732Z,55
2017-08-03T12:48:51.764Z,55
2017-08-03T12:49:51.796Z,65
2017-08-03T12:50:52.155Z,75
2017-08-03T12:51:52.047Z,100
2017-08-03T12:52:52.044Z,85
2017-08-03T12:53:52.045Z,85
2017-08-03T12:54:52.044Z,85
2017-08-03T12:55:51.868Z,85
2017-08-03T12:56:51.797Z,75
2017-08-03T12:57:51.745Z,70
2017-08-03T12:58:51.777Z,70
2017-08-03T12:59:52.677Z,70
2017-08-03T13:00:52.473Z,70
2017-08-03T13:01:52.179Z,75
2017-08-03T13:02:52.450Z,70
2017-08-03T13:03:52.779Z,70
2017-08-03T13:04:52.422Z,60
2017-08-03T13:05:52.690Z,50
2017-08-03T13:06:52.007Z,40
2017-08-03T13:07:52.692Z,45
2017-08-03T13:08:52.711Z,50
2017-08-03T13:09:52.438Z,65
2017-08-03T13:10:51.841Z,35
2017-08-03T13:11:52.212Z,55
2017-08-03T13:12:52.949Z,65
2017-08-03T13:13:51.936Z,50
2017-08-03T13:14:52.603Z,60
2017-08-03T13:15:53.135Z,40
2017-08-03T13:16:53.148Z,65
2017-08-03T13:17:52.816Z,50
2017-08-03T13:18:52.706Z,55
2017-08-03T13:19:52.781Z,65
2017-08-03T13:20:52.204Z,45
2017-08-03T13:21:53.273Z,55
2017-08-03T13:22:52.889Z,65
2017-08-03T13:23:53.196Z,70
2017-08-03T13:24:53.219Z,65
2017-08-03T13:25:53.266Z,55
2017-08-03T13:26:52.974Z,50
2017-08-03T13:27:52.776Z,50
2017-08-03T13:28:53.360Z,55
2017-08-03T13:29:53.098Z,30
2017-08-03T13:30:53.430Z,55
2017-08-03T13:31:53.448Z,40
2017-08-03T13:32:53.487Z,35
2017-08-03T13:33:53.548Z,55
2017-08-03T13:34:53.263Z,40
2017-08-03T13:35:53.448Z,50
2017-08-03T13:36:53.298Z,80
2017-08-03T13:37:53.335Z,65
2017-08-03T13:38:53.341Z,75
2017-08-03T13:39:53.388Z,55
2017-08-03T13:40:53.090Z,55
2017-08-03T13:41:53.117Z,60
2017-08-03T13:42:52.846Z,60
2017-08-03T13:43:53.535Z,50
2017-08-03T13:44:54.136Z,35
2017-08-03T13:45:53.589Z,60
2017-08-03T13:46:53.978Z,50
2017-08-03T13:47:53.659Z,30
2017-08-03T13:48:53.829Z,30
2017-08-03T13:49:53.697Z,60
2017-08-03T13:50:54.133Z,30
2017-08-03T13:51:53.765Z,60
2017-08-03T13:52:54.101Z,65
2017-08-03T13:53:54.131Z,35
2017-08-03T13:54:53.537Z,50
2017-08-03T13:55:54.214Z,30
2017-08-03T13:56:54.109Z,50
2017-08-03T13:57:54.072Z,45
2017-08-03T13:58:54.305Z,75
2017-08-03T13:59:53.694Z,70
2017-08-03T14:00:54.368Z,60
2017-08-03T14:01:54.071Z,60
2017-08-03T14:02:54.553Z,60
2017-08-03T14:03:54.457Z,55
2017-08-03T14:04:54.175Z,55
2017-08-03T14:05:54.737Z,60
2017-08-03T14:06:53.931Z,55
2017-08-03T14:07:53.949Z,55
2017-08-03T14:08:54.652Z,60
2017-08-03T14:09:54.725Z,55
2017-08-03T14:10:54.394Z,60
2017-08-03T14:11:54.404Z,60
2017-08-03T14:12:54.749Z,60
2017-08-03T14:13:54.780Z,55
2017-08-03T14:14:54.819Z,60
2017-08-03T14:15:54.851Z,55
2017-08-03T14:16:54.885Z,55
2017-08-03T14:17:54.925Z,55
2017-08-03T14:18:54.670Z,60
2017-08-03T14:19:54.971Z,60
2017-08-03T14:20:54.388Z,55
2017-08-03T14:21:55.185Z,55
2017-08-03T14:22:54.784Z,55
2017-08-03T14:23:55.242Z,60
2017-08-03T14:24:54.831Z,55
2017-08-03T14:25:54.879Z,60
2017-08-03T14:26:54.646Z,55
2017-08-03T14:27:55.429Z,60